Alexandria, Nebraska
Current Conditions -  °F | °C
As of 10:15 PM on Sunday 28 Dec 2014 (Local Time) from KHJH Reporting Station
Overcast Overcast  
Wind Chill: 28°   Ceiling: 11000
Heat Index: 28°   Visibility: 10mi
Dew Point: 23°   Wind: 0mph
Humidity: 83%   Direction: NA
Pressure: 30.13"   Gusts: NA
Location:  40.25°N, 97.39°W
Report Text: KHJH 290415Z AUTO 00000KT 10SM OVC110 M02/M05 A3013 RMK AO2 T10231048
Loading
Personal Weather Stations






























Interactive Weather Map New forecast layout! Learn more

10-Day Weather Forecast

Advertisements
Track Severe Weather on mobile